createdAt,value
2019-02-26T00:00:42.160Z,5.35
2019-02-26T00:01:38.675Z,5.29
2019-02-26T00:02:38.673Z,5.3
2019-02-26T00:03:40.276Z,5.38
2019-02-26T00:04:41.160Z,5.29
2019-02-26T00:05:38.378Z,5.39
2019-02-26T00:06:38.382Z,5.33
2019-02-26T00:07:38.386Z,5.35
2019-02-26T00:08:38.117Z,5.43
2019-02-26T00:09:40.198Z,5.35
2019-02-26T00:10:41.584Z,5.43
2019-02-26T00:11:42.639Z,5.44
2019-02-26T00:12:40.139Z,5.41
2019-02-26T00:13:40.592Z,5.35
2019-02-26T00:14:38.573Z,5.3
2019-02-26T00:15:45.413Z,5.3
2019-02-26T00:16:46.738Z,5.36
2019-02-26T00:17:49.017Z,5.38
2019-02-26T00:18:38.281Z,5.43
2019-02-26T00:19:38.541Z,5.44
2019-02-26T00:20:43.682Z,5.48
2019-02-26T00:21:38.280Z,5.46
2019-02-26T00:22:41.859Z,5.48
2019-02-26T00:23:37.980Z,5.5
2019-02-26T00:24:44.752Z,5.46
2019-02-26T00:25:38.208Z,5.47
2019-02-26T00:26:43.291Z,5.48
2019-02-26T00:27:39.709Z,5.51
2019-02-26T00:28:43.654Z,5.38
2019-02-26T00:29:38.175Z,5.35
2019-02-26T00:30:44.100Z,5.44
2019-02-26T00:31:38.161Z,5.36
2019-02-26T00:32:42.832Z,5.38
2019-02-26T00:33:38.401Z,5.36
2019-02-26T00:34:41.902Z,5.43
2019-02-26T00:35:39.738Z,5.28
2019-02-26T00:36:40.391Z,5.23
2019-02-26T00:37:38.101Z,5.21
2019-02-26T00:38:44.449Z,5.3
2019-02-26T00:39:37.843Z,5.18
2019-02-26T00:40:43.199Z,5.12
2019-02-26T00:41:42.698Z,5.2
2019-02-26T00:42:40.665Z,5.14
2019-02-26T00:43:41.154Z,5.17
2019-02-26T00:44:41.809Z,5.15
2019-02-26T00:45:41.560Z,5.1
2019-02-26T00:46:41.984Z,5.14
2019-02-26T00:47:44.049Z,5.17
2019-02-26T00:48:43.200Z,5.1
2019-02-26T00:49:38.244Z,5.14
2019-02-26T00:50:42.252Z,5.11
2019-02-26T00:51:39.633Z,5.05
2019-02-26T00:52:41.657Z,5
2019-02-26T00:53:38.222Z,5.1
2019-02-26T00:54:39.410Z,5.05
2019-02-26T00:55:41.871Z,5.04
2019-02-26T00:56:41.591Z,4.97
2019-02-26T00:57:43.175Z,4.99
2019-02-26T00:58:46.234Z,5.07
2019-02-26T00:59:46.200Z,5.07
2019-02-26T01:00:39.926Z,5.02
2019-02-26T01:01:37.661Z,5.02
2019-02-26T01:02:38.130Z,4.99
2019-02-26T01:03:37.888Z,4.99
2019-02-26T01:04:39.043Z,4.97
2019-02-26T01:05:43.144Z,4.92
2019-02-26T01:06:38.364Z,4.89
2019-02-26T01:07:37.828Z,4.84
2019-02-26T01:08:42.427Z,4.93
2019-02-26T01:09:38.622Z,4.93
2019-02-26T01:10:44.053Z,5.02
2019-02-26T01:11:37.802Z,5
2019-02-26T01:12:44.558Z,4.93
2019-02-26T01:13:38.022Z,5
2019-02-26T01:14:39.140Z,5.05
2019-02-26T01:15:37.512Z,5.08
2019-02-26T01:16:41.487Z,5.11
2019-02-26T01:17:42.347Z,5.14
2019-02-26T01:18:38.021Z,5.2
2019-02-26T01:19:43.103Z,5.11
2019-02-26T01:20:37.994Z,5.11
2019-02-26T01:21:40.357Z,5.07
2019-02-26T01:22:43.277Z,5.04
2019-02-26T01:23:37.453Z,4.97
2019-02-26T01:24:37.928Z,5.05
2019-02-26T01:25:40.697Z,4.9
2019-02-26T01:26:37.906Z,4.94
2019-02-26T01:27:37.906Z,4.93
2019-02-26T01:28:39.541Z,4.8
2019-02-26T01:29:37.886Z,4.84
2019-02-26T01:30:40.764Z,4.92
2019-02-26T01:31:38.552Z,4.89
2019-02-26T01:32:37.625Z,4.84
2019-02-26T01:33:38.874Z,4.94
2019-02-26T01:34:38.797Z,4.93
2019-02-26T01:35:40.331Z,4.86
2019-02-26T01:36:38.213Z,4.87
2019-02-26T01:37:41.016Z,4.82
2019-02-26T01:38:43.790Z,4.86
2019-02-26T01:39:42.465Z,4.86
2019-02-26T01:40:39.354Z,4.86
2019-02-26T01:41:41.324Z,4.89
2019-02-26T01:42:37.522Z,4.94
2019-02-26T01:43:37.264Z,4.94
2019-02-26T01:44:44.425Z,4.84
2019-02-26T01:45:37.740Z,4.87
2019-02-26T01:46:43.118Z,4.87
2019-02-26T01:47:37.476Z,4.94
2019-02-26T01:48:41.872Z,4.86
2019-02-26T01:49:37.201Z,4.78
2019-02-26T01:50:42.636Z,4.75
2019-02-26T01:51:37.187Z,4.56
2019-02-26T01:52:37.453Z,4.59
2019-02-26T01:53:37.670Z,4.59
2019-02-26T01:54:41.683Z,4.52
2019-02-26T01:55:39.313Z,4.59
2019-02-26T01:56:41.099Z,4.53
2019-02-26T01:57:37.128Z,4.62
2019-02-26T01:58:38.549Z,4.53
2019-02-26T01:59:39.142Z,4.6
2019-02-26T02:00:38.640Z,4.66
2019-02-26T02:01:39.982Z,4.6
2019-02-26T02:02:37.689Z,4.74
2019-02-26T02:03:37.333Z,4.73
2019-02-26T02:04:43.500Z,4.74
2019-02-26T02:05:40.007Z,4.77
2019-02-26T02:06:41.395Z,4.8
2019-02-26T02:07:37.290Z,4.86
2019-02-26T02:08:43.524Z,4.77
2019-02-26T02:09:37.539Z,4.89
2019-02-26T02:10:37.274Z,4.82
2019-02-26T02:11:42.418Z,4.87
2019-02-26T02:12:42.099Z,4.86
2019-02-26T02:13:43.677Z,4.86
2019-02-26T02:14:37.240Z,4.74
2019-02-26T02:15:40.368Z,4.73
2019-02-26T02:16:38.373Z,4.75
2019-02-26T02:17:42.390Z,4.73
2019-02-26T02:18:37.444Z,4.7
2019-02-26T02:19:37.235Z,4.67
2019-02-26T02:20:37.427Z,4.66
2019-02-26T02:21:40.043Z,4.59
2019-02-26T02:22:42.063Z,4.73
2019-02-26T02:23:37.162Z,4.77
2019-02-26T02:24:43.666Z,4.75
2019-02-26T02:25:43.720Z,4.78
2019-02-26T02:26:37.473Z,4.7
2019-02-26T02:27:38.163Z,4.77
2019-02-26T02:28:39.679Z,4.73
2019-02-26T02:29:37.078Z,4.6
2019-02-26T02:30:41.586Z,4.6
2019-02-26T02:31:42.518Z,4.62
2019-02-26T02:32:38.812Z,4.55
2019-02-26T02:33:40.016Z,4.53
2019-02-26T02:34:43.266Z,4.52
2019-02-26T02:35:37.266Z,4.55
2019-02-26T02:36:37.276Z,4.52
2019-02-26T02:37:36.768Z,4.56
2019-02-26T02:38:41.148Z,4.58
2019-02-26T02:39:36.984Z,4.62
2019-02-26T02:40:37.998Z,4.58
2019-02-26T02:41:39.256Z,4.71
2019-02-26T02:42:43.572Z,4.66
2019-02-26T02:43:36.961Z,4.62
2019-02-26T02:44:39.021Z,4.5
2019-02-26T02:45:36.939Z,4.52
2019-02-26T02:46:42.332Z,4.56
2019-02-26T02:47:41.253Z,4.52
2019-02-26T02:48:37.157Z,4.48
2019-02-26T02:49:44.235Z,4.48
2019-02-26T02:50:37.169Z,4.41
2019-02-26T02:51:42.028Z,4.41
2019-02-26T02:52:40.391Z,4.53
2019-02-26T02:53:37.256Z,4.45
2019-02-26T02:54:38.537Z,4.52
2019-02-26T02:55:37.839Z,4.55
2019-02-26T02:56:44.240Z,4.6
2019-02-26T02:57:38.908Z,4.55
2019-02-26T02:58:38.384Z,4.45
2019-02-26T02:59:42.204Z,4.5
2019-02-26T03:00:39.313Z,4.38
2019-02-26T03:01:37.027Z,4.35
2019-02-26T03:02:46.359Z,4.34
2019-02-26T03:03:36.507Z,4.34
2019-02-26T03:04:39.566Z,4.32
2019-02-26T03:05:45.835Z,4.3
2019-02-26T03:06:41.000Z,4.23
2019-02-26T03:07:36.724Z,4.34
2019-02-26T03:08:36.742Z,4.23
2019-02-26T03:09:45.576Z,4.26
2019-02-26T03:10:45.011Z,4.19
2019-02-26T03:11:44.476Z,4.19
2019-02-26T03:12:36.942Z,4.16
2019-02-26T03:13:36.414Z,4.17
2019-02-26T03:14:44.454Z,4.17
2019-02-26T03:15:40.394Z,4.14
2019-02-26T03:16:36.644Z,4.04
2019-02-26T03:17:36.884Z,3.99
2019-02-26T03:18:36.616Z,4.02
2019-02-26T03:19:43.696Z,3.99
2019-02-26T03:20:44.451Z,3.95
2019-02-26T03:21:36.598Z,3.83
2019-02-26T03:22:46.550Z,3.91
2019-02-26T03:23:45.482Z,3.86
2019-02-26T03:24:40.557Z,3.84
2019-02-26T03:25:36.798Z,3.86
2019-02-26T03:26:36.539Z,3.91
2019-02-26T03:27:42.671Z,3.86
2019-02-26T03:28:42.089Z,3.88
2019-02-26T03:29:36.511Z,3.88
2019-02-26T03:30:46.889Z,3.8
2019-02-26T03:31:46.374Z,3.91
2019-02-26T03:32:41.198Z,3.84
2019-02-26T03:33:36.587Z,3.81
2019-02-26T03:34:36.724Z,3.84
2019-02-26T03:35:36.484Z,3.86
2019-02-26T03:36:45.086Z,3.78
2019-02-26T03:37:40.606Z,3.81
2019-02-26T03:38:36.661Z,3.73
2019-02-26T03:39:36.680Z,3.73
2019-02-26T03:40:38.801Z,3.7
2019-02-26T03:41:36.864Z,3.74
2019-02-26T03:42:44.113Z,3.8
2019-02-26T03:43:41.814Z,3.84
2019-02-26T03:44:36.617Z,3.76
2019-02-26T03:45:36.600Z,3.8
2019-02-26T03:46:36.591Z,3.7
2019-02-26T03:47:39.979Z,3.68
2019-02-26T03:48:36.582Z,3.7
2019-02-26T03:49:36.550Z,3.74
2019-02-26T03:50:36.417Z,3.69
2019-02-26T03:51:41.694Z,3.69
2019-02-26T03:52:37.033Z,3.68
2019-02-26T03:53:43.952Z,3.68
2019-02-26T03:54:40.197Z,3.69
2019-02-26T03:55:43.773Z,3.74
2019-02-26T03:56:36.273Z,3.62
2019-02-26T03:57:40.901Z,3.69
2019-02-26T03:58:36.473Z,3.68
2019-02-26T03:59:36.215Z,3.65
2019-02-26T04:00:43.808Z,3.77
2019-02-26T04:01:36.187Z,3.76
2019-02-26T04:02:37.159Z,3.73
2019-02-26T04:03:42.467Z,3.78
2019-02-26T04:04:38.210Z,3.76
2019-02-26T04:05:36.152Z,3.78
2019-02-26T04:06:43.754Z,3.78
2019-02-26T04:07:38.824Z,3.83
2019-02-26T04:08:36.367Z,3.83
2019-02-26T04:09:39.051Z,3.84
2019-02-26T04:10:36.360Z,3.78
2019-02-26T04:11:35.868Z,3.92
2019-02-26T04:12:44.983Z,3.83
2019-02-26T04:13:36.073Z,3.74
2019-02-26T04:14:36.079Z,3.84
2019-02-26T04:15:40.835Z,3.81
2019-02-26T04:16:41.145Z,3.95
2019-02-26T04:17:44.503Z,3.83
2019-02-26T04:18:39.536Z,3.91
2019-02-26T04:19:36.010Z,3.91
2019-02-26T04:20:36.246Z,3.81
2019-02-26T04:21:35.992Z,3.92
2019-02-26T04:22:39.151Z,3.87
2019-02-26T04:23:44.043Z,3.8
2019-02-26T04:24:40.530Z,3.95
2019-02-26T04:25:40.302Z,3.84
2019-02-26T04:26:39.694Z,3.83
2019-02-26T04:27:44.142Z,3.83
2019-02-26T04:28:42.956Z,3.8
2019-02-26T04:29:45.991Z,3.77
2019-02-26T04:30:45.093Z,3.83
2019-02-26T04:31:36.142Z,3.77
2019-02-26T04:32:40.842Z,3.8
2019-02-26T04:33:41.352Z,3.77
2019-02-26T04:34:36.118Z,3.8
2019-02-26T04:35:35.849Z,3.86
2019-02-26T04:36:39.662Z,3.84
2019-02-26T04:37:41.001Z,3.86
2019-02-26T04:38:36.115Z,3.84
2019-02-26T04:39:39.294Z,3.78
2019-02-26T04:40:41.019Z,3.78
2019-02-26T04:41:37.503Z,3.88
2019-02-26T04:42:42.885Z,3.86
2019-02-26T04:43:41.189Z,3.76
2019-02-26T04:44:38.645Z,3.76
2019-02-26T04:45:35.995Z,3.74
2019-02-26T04:46:39.658Z,3.76
2019-02-26T04:47:40.518Z,3.8
2019-02-26T04:48:38.731Z,3.7
2019-02-26T04:49:43.051Z,3.73
2019-02-26T04:50:44.504Z,3.73
2019-02-26T04:51:39.798Z,3.76
2019-02-26T04:52:42.852Z,3.77
2019-02-26T04:53:38.823Z,3.7
2019-02-26T04:54:41.861Z,3.65
2019-02-26T04:55:44.850Z,3.73
2019-02-26T04:56:44.988Z,3.7
2019-02-26T04:57:39.221Z,3.69
2019-02-26T04:58:40.310Z,3.74
2019-02-26T04:59:43.774Z,3.6
2019-02-26T05:00:41.126Z,3.59
2019-02-26T05:01:37.195Z,3.59
2019-02-26T05:02:35.588Z,3.56
2019-02-26T05:03:35.804Z,3.6
2019-02-26T05:04:42.470Z,3.68
2019-02-26T05:05:39.651Z,3.6
2019-02-26T05:06:35.549Z,3.68
2019-02-26T05:07:42.005Z,3.58
2019-02-26T05:08:42.773Z,3.58
2019-02-26T05:09:39.970Z,3.62
2019-02-26T05:10:38.296Z,3.58
2019-02-26T05:11:43.105Z,3.6
2019-02-26T05:12:42.545Z,3.68
2019-02-26T05:13:38.972Z,3.7
2019-02-26T05:14:35.475Z,3.63
2019-02-26T05:15:37.984Z,3.59
2019-02-26T05:16:42.486Z,3.62
2019-02-26T05:17:38.169Z,3.66
2019-02-26T05:18:38.633Z,3.65
2019-02-26T05:19:36.395Z,3.62
2019-02-26T05:20:42.744Z,3.69
2019-02-26T05:21:40.392Z,3.69
2019-02-26T05:22:38.065Z,3.66
2019-02-26T05:23:38.082Z,3.78
2019-02-26T05:24:35.621Z,3.74
2019-02-26T05:25:40.513Z,3.74
2019-02-26T05:26:35.317Z,3.74
2019-02-26T05:27:36.309Z,3.65
2019-02-26T05:28:46.243Z,3.59
2019-02-26T05:29:35.553Z,3.59
2019-02-26T05:30:37.628Z,3.62
2019-02-26T05:31:43.138Z,3.47
2019-02-26T05:32:38.074Z,3.44
2019-02-26T05:33:37.547Z,3.47
2019-02-26T05:34:37.363Z,3.5
2019-02-26T05:35:37.331Z,3.44
2019-02-26T05:36:43.435Z,3.41
2019-02-26T05:37:42.878Z,3.45
2019-02-26T05:38:40.927Z,3.48
2019-02-26T05:39:35.429Z,3.51
2019-02-26T05:40:42.607Z,3.47
2019-02-26T05:41:35.157Z,3.53
2019-02-26T05:42:35.401Z,3.37
2019-02-26T05:43:38.458Z,3.47
2019-02-26T05:44:35.383Z,3.48
2019-02-26T05:45:39.699Z,3.51
2019-02-26T05:46:35.359Z,3.5
2019-02-26T05:47:35.348Z,3.55
2019-02-26T05:48:37.065Z,3.5
2019-02-26T05:49:43.265Z,3.62
2019-02-26T05:50:44.558Z,3.53
2019-02-26T05:51:40.517Z,3.62
2019-02-26T05:52:38.377Z,3.63
2019-02-26T05:53:35.316Z,3.59
2019-02-26T05:54:35.289Z,3.63
2019-02-26T05:55:35.045Z,3.7
2019-02-26T05:56:38.363Z,3.66
2019-02-26T05:57:37.418Z,3.66
2019-02-26T05:58:38.660Z,3.69
2019-02-26T05:59:34.967Z,3.63
2019-02-26T06:00:38.004Z,3.69
2019-02-26T06:01:34.959Z,3.65
2019-02-26T06:02:37.142Z,3.63
2019-02-26T06:03:35.189Z,3.62
2019-02-26T06:04:40.933Z,3.62
2019-02-26T06:05:34.914Z,3.63
2019-02-26T06:06:35.236Z,3.73
2019-02-26T06:07:41.094Z,3.63
2019-02-26T06:08:41.233Z,3.69
2019-02-26T06:09:37.909Z,3.68
2019-02-26T06:10:37.406Z,3.65
2019-02-26T06:11:42.870Z,3.69
2019-02-26T06:12:43.306Z,3.78
2019-02-26T06:13:41.157Z,3.76
2019-02-26T06:14:41.582Z,3.74
2019-02-26T06:15:38.366Z,3.63
2019-02-26T06:16:36.334Z,3.7
2019-02-26T06:17:42.858Z,3.65
2019-02-26T06:18:35.034Z,3.7
2019-02-26T06:19:42.746Z,3.74
2019-02-26T06:20:39.080Z,3.73
2019-02-26T06:21:34.767Z,3.8
2019-02-26T06:22:37.069Z,3.7
2019-02-26T06:23:43.136Z,3.73
2019-02-26T06:24:40.321Z,3.7
2019-02-26T06:25:35.019Z,3.81
2019-02-26T06:26:41.219Z,3.76
2019-02-26T06:27:34.464Z,3.77
2019-02-26T06:28:38.412Z,3.88
2019-02-26T06:29:39.791Z,3.92
2019-02-26T06:30:34.920Z,3.83
2019-02-26T06:31:34.658Z,3.84
2019-02-26T06:32:44.011Z,3.86
2019-02-26T06:33:41.231Z,3.81
2019-02-26T06:34:34.880Z,3.96
2019-02-26T06:35:40.623Z,3.91
2019-02-26T06:36:35.034Z,3.81
2019-02-26T06:37:40.243Z,3.87
2019-02-26T06:38:37.500Z,3.84
2019-02-26T06:39:38.725Z,3.86
2019-02-26T06:40:42.630Z,3.8
2019-02-26T06:41:34.302Z,3.95
2019-02-26T06:42:40.421Z,4.01
2019-02-26T06:43:42.111Z,3.94
2019-02-26T06:44:34.777Z,3.83
2019-02-26T06:45:35.488Z,3.83
2019-02-26T06:46:40.760Z,3.98
2019-02-26T06:47:37.660Z,3.96
2019-02-26T06:48:37.079Z,3.95
2019-02-26T06:49:34.465Z,3.96
2019-02-26T06:50:41.039Z,4.04
2019-02-26T06:51:35.345Z,4.01
2019-02-26T06:52:44.691Z,4.06
2019-02-26T06:53:34.688Z,4.12
2019-02-26T06:54:36.640Z,4.19
2019-02-26T06:55:34.422Z,4.08
2019-02-26T06:56:43.374Z,4.19
2019-02-26T06:57:34.392Z,4.2
2019-02-26T06:58:35.714Z,4.16
2019-02-26T06:59:39.242Z,4.19
2019-02-26T07:00:34.379Z,4.16
2019-02-26T07:01:40.050Z,4.24
2019-02-26T07:02:34.611Z,4.3
2019-02-26T07:03:34.354Z,4.26
2019-02-26T07:04:34.781Z,4.3
2019-02-26T07:05:34.583Z,4.32
2019-02-26T07:06:38.020Z,4.35
2019-02-26T07:07:34.553Z,4.37
2019-02-26T07:08:35.834Z,4.4
2019-02-26T07:09:36.844Z,4.41
2019-02-26T07:10:38.262Z,4.38
2019-02-26T07:11:40.245Z,4.48
2019-02-26T07:12:34.496Z,4.56
2019-02-26T07:13:38.566Z,4.59
2019-02-26T07:14:36.974Z,4.55
2019-02-26T07:15:34.476Z,4.66
2019-02-26T07:16:34.454Z,4.6
2019-02-26T07:17:42.875Z,4.59
2019-02-26T07:18:33.961Z,4.66
2019-02-26T07:19:38.696Z,4.73
2019-02-26T07:20:46.615Z,4.77
2019-02-26T07:21:34.162Z,4.86
2019-02-26T07:22:33.905Z,4.94
2019-02-26T07:23:40.110Z,4.86
2019-02-26T07:24:34.441Z,5
2019-02-26T07:25:43.437Z,5.02
2019-02-26T07:26:36.152Z,5.11
2019-02-26T07:27:40.317Z,5.14
2019-02-26T07:28:34.111Z,5.18
2019-02-26T07:29:44.401Z,5.15
2019-02-26T07:30:37.413Z,5.14
2019-02-26T07:31:37.758Z,5.3
2019-02-26T07:32:35.897Z,5.33
2019-02-26T07:33:39.605Z,5.47
2019-02-26T07:34:34.044Z,5.64
2019-02-26T07:35:39.532Z,6.07
2019-02-26T07:36:34.037Z,6.54
2019-02-26T07:37:40.421Z,7
2019-02-26T07:38:44.562Z,7.51
2019-02-26T07:39:34.257Z,7.97
2019-02-26T07:40:42.687Z,8.41
2019-02-26T07:41:34.918Z,8.63
2019-02-26T07:42:41.435Z,8.99
2019-02-26T07:43:36.607Z,9.28
2019-02-26T07:44:33.993Z,9.4
2019-02-26T07:45:36.842Z,9.69
2019-02-26T07:46:38.371Z,10.1
2019-02-26T07:47:38.487Z,10.26
2019-02-26T07:48:36.173Z,10.64
2019-02-26T07:49:33.964Z,10.71
2019-02-26T07:50:48.187Z,10.97
2019-02-26T07:51:41.023Z,11.12
2019-02-26T07:52:37.245Z,11.4
2019-02-26T07:53:33.940Z,11.69
2019-02-26T07:54:33.683Z,11.84
2019-02-26T07:55:40.502Z,11.73
2019-02-26T07:56:36.615Z,11.57
2019-02-26T07:57:33.938Z,11.52
2019-02-26T07:58:40.748Z,11.55
2019-02-26T07:59:39.694Z,11.69
2019-02-26T08:00:42.307Z,12.02
2019-02-26T08:01:35.389Z,12.12
2019-02-26T08:02:37.389Z,12.47
2019-02-26T08:03:34.039Z,12.58
2019-02-26T08:04:38.677Z,12.8
2019-02-26T08:05:33.912Z,13.01
2019-02-26T08:06:38.559Z,13.35
2019-02-26T08:07:35.628Z,13.47
2019-02-26T08:08:33.652Z,13.41
2019-02-26T08:09:33.903Z,13.27
2019-02-26T08:10:40.011Z,13.18
2019-02-26T08:11:36.057Z,13.18
2019-02-26T08:12:40.911Z,13.01
2019-02-26T08:13:38.948Z,13.18
2019-02-26T08:14:34.152Z,13.35
2019-02-26T08:15:39.862Z,13.5
2019-02-26T08:16:34.866Z,13.62
2019-02-26T08:17:33.910Z,13.86
2019-02-26T08:18:33.891Z,13.81
2019-02-26T08:19:39.759Z,13.7
2019-02-26T08:20:40.272Z,13.65
2019-02-26T08:21:34.600Z,13.71
2019-02-26T08:22:38.696Z,13.74
2019-02-26T08:23:34.138Z,13.68
2019-02-26T08:24:33.901Z,13.59
2019-02-26T08:25:34.138Z,13.62
2019-02-26T08:26:34.141Z,13.54
2019-02-26T08:27:40.099Z,13.47
2019-02-26T08:28:33.898Z,13.28
2019-02-26T08:29:38.316Z,13.05
2019-02-26T08:30:33.891Z,12.7
2019-02-26T08:31:34.138Z,12.36
2019-02-26T08:32:35.364Z,11.84
2019-02-26T08:33:33.885Z,11.51
2019-02-26T08:34:33.886Z,11.25
2019-02-26T08:35:34.128Z,10.86
2019-02-26T08:36:33.645Z,10.54
2019-02-26T08:37:33.882Z,10.13
2019-02-26T08:38:34.800Z,9.95
2019-02-26T08:39:35.629Z,9.65
2019-02-26T08:40:34.136Z,9.43
2019-02-26T08:41:33.876Z,9.29
2019-02-26T08:42:33.944Z,9.14
2019-02-26T08:43:34.113Z,9.02
2019-02-26T08:44:33.869Z,8.99
2019-02-26T08:45:36.041Z,8.85
2019-02-26T08:46:33.935Z,8.74
2019-02-26T08:47:33.945Z,8.67
2019-02-26T08:48:33.606Z,8.64
2019-02-26T08:49:35.237Z,8.58
2019-02-26T08:50:41.358Z,8.49
2019-02-26T08:51:34.640Z,8.51
2019-02-26T08:52:34.313Z,8.37
2019-02-26T08:53:36.130Z,8.42
2019-02-26T08:54:38.327Z,8.41
2019-02-26T08:55:33.826Z,8.45
2019-02-26T08:56:40.943Z,8.38
2019-02-26T08:57:33.818Z,8.31
2019-02-26T08:58:33.824Z,8.28
2019-02-26T08:59:34.043Z,8.33
2019-02-26T09:00:34.299Z,8.44
2019-02-26T09:01:33.818Z,8.44
2019-02-26T09:02:33.543Z,8.41
2019-02-26T09:03:42.825Z,8.38
2019-02-26T09:04:35.117Z,8.49
2019-02-26T09:05:38.984Z,8.56
2019-02-26T09:06:33.818Z,8.56
2019-02-26T09:07:33.755Z,8.6
2019-02-26T09:08:38.602Z,8.61
2019-02-26T09:09:35.809Z,8.64
2019-02-26T09:10:33.733Z,8.74
2019-02-26T09:11:38.862Z,8.69
2019-02-26T09:12:34.492Z,8.81
2019-02-26T09:13:39.202Z,8.81
2019-02-26T09:14:40.286Z,8.91
2019-02-26T09:15:40.825Z,8.89
2019-02-26T09:16:36.900Z,8.94
2019-02-26T09:17:41.363Z,9.02
2019-02-26T09:18:40.602Z,8.97
2019-02-26T09:19:38.193Z,9.18
2019-02-26T09:20:33.934Z,9.18
2019-02-26T09:21:34.619Z,9.19
2019-02-26T09:22:33.670Z,9.19
2019-02-26T09:23:35.277Z,9.25
2019-02-26T09:24:33.666Z,9.19
2019-02-26T09:25:36.456Z,9.29
2019-02-26T09:26:33.647Z,9.32
2019-02-26T09:27:42.677Z,9.46
2019-02-26T09:28:34.528Z,9.36
2019-02-26T09:29:34.660Z,9.4
2019-02-26T09:30:40.806Z,9.51
2019-02-26T09:31:33.904Z,9.58
2019-02-26T09:32:37.328Z,9.55
2019-02-26T09:33:42.702Z,9.64
2019-02-26T09:34:39.959Z,9.72
2019-02-26T09:35:37.311Z,9.86
2019-02-26T09:36:34.021Z,9.84
2019-02-26T09:37:33.833Z,9.95
2019-02-26T09:38:33.826Z,10.01
2019-02-26T09:39:39.046Z,10.1
2019-02-26T09:40:38.361Z,10.16
2019-02-26T09:41:37.734Z,10.2
2019-02-26T09:42:36.447Z,10.26
2019-02-26T09:43:33.333Z,10.35
2019-02-26T09:44:38.207Z,10.33
2019-02-26T09:45:34.984Z,10.4
2019-02-26T09:46:41.851Z,10.6
2019-02-26T09:47:37.796Z,10.6
2019-02-26T09:48:34.048Z,10.61
2019-02-26T09:49:38.343Z,10.68
2019-02-26T09:50:33.798Z,10.75
2019-02-26T09:51:37.938Z,10.72
2019-02-26T09:52:37.224Z,10.81
2019-02-26T09:53:33.754Z,10.87
2019-02-26T09:54:37.580Z,11
2019-02-26T09:55:33.505Z,11.07
2019-02-26T09:56:33.506Z,11.08
2019-02-26T09:57:33.563Z,11.12
2019-02-26T09:58:33.494Z,11.22
2019-02-26T09:59:38.825Z,11.33
2019-02-26T10:00:34.192Z,11.43
2019-02-26T10:01:40.181Z,11.45
2019-02-26T10:02:33.495Z,11.4
2019-02-26T10:03:41.416Z,11.48
2019-02-26T10:04:34.325Z,11.48
2019-02-26T10:05:33.456Z,11.54
2019-02-26T10:06:34.895Z,11.57
2019-02-26T10:07:39.213Z,11.6
2019-02-26T10:08:35.437Z,11.69
2019-02-26T10:09:38.075Z,11.72
2019-02-26T10:10:39.845Z,11.69
2019-02-26T10:11:33.687Z,11.86
2019-02-26T10:12:39.193Z,11.83
2019-02-26T10:13:33.429Z,11.87
2019-02-26T10:14:38.496Z,11.97
2019-02-26T10:15:37.286Z,12.13
2019-02-26T10:16:37.443Z,12.18
2019-02-26T10:17:40.009Z,12.31
2019-02-26T10:18:35.497Z,12.25
2019-02-26T10:19:40.975Z,12.37
2019-02-26T10:20:36.348Z,12.47
2019-02-26T10:21:37.438Z,12.42
2019-02-26T10:22:42.335Z,12.57
2019-02-26T10:23:37.632Z,12.67
2019-02-26T10:24:40.241Z,12.64
2019-02-26T10:25:40.757Z,12.78
2019-02-26T10:26:40.953Z,12.85
2019-02-26T10:27:43.050Z,12.87
2019-02-26T10:28:39.595Z,13.03
2019-02-26T10:29:36.805Z,13.04
2019-02-26T10:30:41.664Z,13.2
2019-02-26T10:31:33.375Z,13.16
2019-02-26T10:32:35.264Z,13.19
2019-02-26T10:33:38.006Z,13.27
2019-02-26T10:34:34.948Z,13.27
2019-02-26T10:35:42.682Z,13.28
2019-02-26T10:36:45.951Z,13.22
2019-02-26T10:37:39.126Z,13.3
2019-02-26T10:38:40.686Z,13.27
2019-02-26T10:39:34.631Z,13.31
2019-02-26T10:40:57.194Z,13.39
2019-02-26T10:41:34.748Z,13.5
2019-02-26T10:42:41.918Z,13.5
2019-02-26T10:43:33.353Z,13.56
2019-02-26T10:44:33.335Z,13.56
2019-02-26T10:45:41.505Z,13.6
2019-02-26T10:46:37.672Z,13.67
2019-02-26T10:47:37.068Z,13.71
2019-02-26T10:48:33.325Z,13.78
2019-02-26T10:49:33.391Z,13.74
2019-02-26T10:50:37.313Z,13.7
2019-02-26T10:51:33.574Z,13.7
2019-02-26T10:52:33.591Z,13.78
2019-02-26T10:53:33.553Z,13.89
2019-02-26T10:54:43.489Z,13.87
2019-02-26T10:55:43.561Z,13.9
2019-02-26T10:56:44.711Z,13.83
2019-02-26T10:57:38.561Z,13.9
2019-02-26T10:58:33.311Z,13.9
2019-02-26T10:59:33.578Z,13.93
2019-02-26T11:00:40.170Z,14.05
2019-02-26T11:01:36.407Z,14.07
2019-02-26T11:02:33.282Z,14.1
2019-02-26T11:03:40.942Z,14.17
2019-02-26T11:04:44.516Z,14.2
2019-02-26T11:05:33.533Z,14.23
2019-02-26T11:06:42.226Z,14.3
2019-02-26T11:07:40.401Z,14.36
2019-02-26T11:08:37.398Z,14.33
2019-02-26T11:09:36.420Z,14.45
2019-02-26T11:10:34.218Z,14.54
2019-02-26T11:11:39.883Z,14.54
2019-02-26T11:12:38.642Z,14.59
2019-02-26T11:13:33.509Z,14.54
2019-02-26T11:14:39.524Z,14.58
2019-02-26T11:15:38.516Z,14.54
2019-02-26T11:16:39.188Z,14.68
2019-02-26T11:17:36.286Z,14.69
2019-02-26T11:18:34.696Z,14.66
2019-02-26T11:19:42.018Z,14.81
2019-02-26T11:20:36.864Z,14.81
2019-02-26T11:21:33.255Z,14.89
2019-02-26T11:22:33.246Z,14.89
2019-02-26T11:23:38.732Z,14.94
2019-02-26T11:24:38.669Z,15
2019-02-26T11:25:33.486Z,14.94
2019-02-26T11:26:40.725Z,15
2019-02-26T11:27:35.211Z,15.03
2019-02-26T11:28:42.829Z,14.96
2019-02-26T11:29:38.809Z,15.06
2019-02-26T11:30:36.536Z,15.06
2019-02-26T11:31:33.235Z,15.07
2019-02-26T11:32:42.185Z,15.18
2019-02-26T11:33:33.261Z,15.21
2019-02-26T11:34:40.434Z,15.21
2019-02-26T11:35:33.487Z,15.24
2019-02-26T11:36:40.940Z,15.24
2019-02-26T11:37:35.090Z,15.42
2019-02-26T11:38:34.504Z,15.39
2019-02-26T11:39:33.222Z,15.52
2019-02-26T11:40:35.867Z,15.37
2019-02-26T11:41:38.239Z,15.42
2019-02-26T11:42:33.582Z,15.49
2019-02-26T11:43:33.811Z,15.46
2019-02-26T11:44:33.458Z,15.49
2019-02-26T11:45:37.075Z,15.58
2019-02-26T11:46:36.851Z,15.57
2019-02-26T11:47:37.421Z,15.72
2019-02-26T11:48:35.788Z,15.64
2019-02-26T11:49:34.807Z,15.7
2019-02-26T11:50:33.458Z,15.79
2019-02-26T11:51:44.594Z,15.97
2019-02-26T11:52:33.743Z,15.95
2019-02-26T11:53:34.815Z,16.01
2019-02-26T11:54:42.128Z,16.1
2019-02-26T11:55:39.675Z,16.01
2019-02-26T11:56:33.455Z,16.1
2019-02-26T11:57:43.089Z,16.13
2019-02-26T11:58:33.191Z,16.17
2019-02-26T11:59:38.056Z,16.26
2019-02-26T12:00:44.779Z,16.33
2019-02-26T12:01:39.500Z,16.35
2019-02-26T12:02:41.540Z,16.41
2019-02-26T12:03:41.675Z,16.46
2019-02-26T12:04:33.192Z,16.42
2019-02-26T12:05:41.729Z,16.39
2019-02-26T12:06:33.436Z,16.41
2019-02-26T12:07:37.241Z,16.51
2019-02-26T12:08:33.195Z,16.43
2019-02-26T12:09:40.674Z,16.54
2019-02-26T12:10:40.572Z,16.54
2019-02-26T12:11:33.443Z,16.51
2019-02-26T12:12:38.256Z,16.56
2019-02-26T12:13:33.434Z,16.64
2019-02-26T12:14:34.602Z,16.69
2019-02-26T12:15:40.232Z,16.71
2019-02-26T12:17:53.993Z,16.78
2019-02-26T12:18:51.334Z,16.76
2019-02-26T12:19:52.891Z,16.75
2019-02-26T12:20:53.183Z,16.79
2019-02-26T12:21:54.374Z,16.78
2019-02-26T12:22:55.381Z,16.86
2019-02-26T12:23:51.250Z,16.87
2019-02-26T12:24:55.681Z,16.71
2019-02-26T12:25:49.842Z,16.75
2019-02-26T12:26:54.674Z,16.83
2019-02-26T12:27:50.668Z,16.84
2019-02-26T12:28:48.673Z,16.84
2019-02-26T12:29:54.494Z,16.96
2019-02-26T12:30:50.949Z,16.94
2019-02-26T12:31:50.193Z,16.99
2019-02-26T12:32:55.191Z,17.06
2019-02-26T12:33:48.842Z,17.09
2019-02-26T12:34:53.622Z,17.15
2019-02-26T12:35:48.831Z,17.23
2019-02-26T12:36:51.114Z,17.16
2019-02-26T12:37:50.758Z,17.16
2019-02-26T12:38:53.575Z,17.14
2019-02-26T12:39:55.503Z,17.14
2019-02-26T12:40:55.711Z,17.04
2019-02-26T12:41:50.620Z,16.99
2019-02-26T12:42:48.596Z,16.97
2019-02-26T12:43:51.249Z,16.94
2019-02-26T12:44:50.385Z,16.96
2019-02-26T12:45:48.836Z,16.91
2019-02-26T12:46:53.680Z,16.97
2019-02-26T12:47:57.293Z,17.04
2019-02-26T12:48:52.814Z,17.06
2019-02-26T12:49:49.689Z,17.15
2019-02-26T12:50:48.836Z,17.12
2019-02-26T12:51:53.737Z,17.09
2019-02-26T12:54:15.677Z,17.16
2019-02-26T12:55:13.209Z,17.26
2019-02-26T12:56:12.836Z,17.24
2019-02-26T12:59:09.983Z,17.29
2019-02-26T12:59:19.242Z,17.31
2019-02-26T13:00:26.205Z,17.3
2019-02-26T13:01:19.750Z,17.41
2019-02-26T13:02:26.971Z,17.45
2019-02-26T13:03:24.884Z,17.36
2019-02-26T13:04:27.448Z,17.41
2019-02-26T13:05:25.311Z,17.34
2019-02-26T13:06:25.013Z,17.38
2019-02-26T13:07:19.504Z,17.38
2019-02-26T13:08:26.623Z,17.31
2019-02-26T13:09:19.734Z,17.42
2019-02-26T13:10:19.778Z,17.29
2019-02-26T13:11:27.405Z,17.39
2019-02-26T13:12:29.471Z,17.3
2019-02-26T13:13:19.742Z,17.34
2019-02-26T13:14:19.737Z,17.41
2019-02-26T13:17:32.198Z,17.38
2019-02-26T13:17:44.293Z,17.44
2019-02-26T13:18:41.677Z,17.46